sensor_id;sensor_type;location;lat;lon;timestamp;P1;durP1;ratioP1;P2;durP2;ratioP2
22097;SDS011;11215;51.938;8.464;2023-07-29T14:34:57;2.10;;;2.00;;
22097;SDS011;11215;51.938;8.464;2023-07-29T14:37:23;2.30;;;2.20;;
22097;SDS011;11215;51.938;8.464;2023-07-29T14:39:49;2.88;;;2.67;;
22097;SDS011;11215;51.938;8.464;2023-07-29T14:42:14;2.42;;;2.33;;
22097;SDS011;11215;51.938;8.464;2023-07-29T14:44:40;2.60;;;2.40;;
22097;SDS011;11215;51.938;8.464;2023-07-29T14:47:07;2.08;;;1.98;;
22097;SDS011;11215;51.938;8.464;2023-07-29T14:49:33;2.40;;;2.20;;
22097;SDS011;11215;51.938;8.464;2023-07-29T14:51:59;2.53;;;2.33;;
22097;SDS011;11215;51.938;8.464;2023-07-29T14:54:24;3.85;;;2.28;;
22097;SDS011;11215;51.938;8.464;2023-07-29T14:56:50;2.20;;;2.10;;
22097;SDS011;11215;51.938;8.464;2023-07-29T14:59:16;2.45;;;2.25;;
22097;SDS011;11215;51.938;8.464;2023-07-29T15:01:41;2.15;;;2.05;;
22097;SDS011;11215;51.938;8.464;2023-07-29T15:04:07;2.47;;;2.28;;
22097;SDS011;11215;51.938;8.464;2023-07-29T15:06:33;2.72;;;2.50;;
22097;SDS011;11215;51.938;8.464;2023-07-29T15:08:58;2.28;;;2.08;;
22097;SDS011;11215;51.938;8.464;2023-07-29T15:11:25;2.00;;;1.90;;
22097;SDS011;11215;51.938;8.464;2023-07-29T15:13:51;2.55;;;2.35;;
22097;SDS011;11215;51.938;8.464;2023-07-29T15:16:17;2.92;;;2.05;;
22097;SDS011;11215;51.938;8.464;2023-07-29T18:01:56;0.90;;;0.90;;
22097;SDS011;11215;51.938;8.464;2023-07-29T18:04:22;1.63;;;1.00;;
22097;SDS011;11215;51.938;8.464;2023-07-29T18:06:51;1.87;;;1.20;;
22097;SDS011;11215;51.938;8.464;2023-07-29T18:09:16;0.82;;;0.75;;
22097;SDS011;11215;51.938;8.464;2023-07-29T18:11:42;1.20;;;1.10;;
22097;SDS011;11215;51.938;8.464;2023-07-29T18:14:08;1.30;;;0.90;;
22097;SDS011;11215;51.938;8.464;2023-07-29T18:16:34;2.73;;;0.90;;
22097;SDS011;11215;51.938;8.464;2023-07-29T18:19:01;2.80;;;0.90;;
22097;SDS011;11215;51.938;8.464;2023-07-29T18:21:27;2.35;;;1.13;;
22097;SDS011;11215;51.938;8.464;2023-07-29T18:23:53;0.85;;;0.85;;
22097;SDS011;11215;51.938;8.464;2023-07-29T18:26:19;4.00;;;1.10;;
22097;SDS011;11215;51.938;8.464;2023-07-29T18:28:44;1.97;;;1.23;;
22097;SDS011;11215;51.938;8.464;2023-07-29T18:31:10;2.10;;;0.97;;
22097;SDS011;11215;51.938;8.464;2023-07-29T18:33:35;1.73;;;0.80;;
22097;SDS011;11215;51.938;8.464;2023-07-29T18:36:02;2.87;;;0.90;;
22097;SDS011;11215;51.938;8.464;2023-07-29T18:38:28;2.17;;;1.00;;
22097;SDS011;11215;51.938;8.464;2023-07-29T18:40:54;3.43;;;1.10;;
22097;SDS011;11215;51.938;8.464;2023-07-29T18:43:20;1.35;;;1.00;;
22097;SDS011;11215;51.938;8.464;2023-07-29T18:45:46;1.10;;;1.00;;
22097;SDS011;11215;51.938;8.464;2023-07-29T18:48:11;1.53;;;1.00;;
22097;SDS011;11215;51.938;8.464;2023-07-29T18:50:38;2.83;;;1.20;;
22097;SDS011;11215;51.938;8.464;2023-07-29T18:53:03;1.03;;;0.90;;
22097;SDS011;11215;51.938;8.464;2023-07-29T18:55:29;1.23;;;0.97;;
22097;SDS011;11215;51.938;8.464;2023-07-29T18:57:55;2.10;;;1.00;;
22097;SDS011;11215;51.938;8.464;2023-07-29T19:00:21;1.83;;;1.17;;
22097;SDS011;11215;51.938;8.464;2023-07-29T19:02:46;1.13;;;0.93;;
22097;SDS011;11215;51.938;8.464;2023-07-29T19:05:13;1.30;;;0.90;;
22097;SDS011;11215;51.938;8.464;2023-07-29T19:07:39;2.27;;;1.30;;
22097;SDS011;11215;51.938;8.464;2023-07-29T19:10:05;1.63;;;0.90;;
22097;SDS011;11215;51.938;8.464;2023-07-29T19:12:31;1.73;;;1.23;;
22097;SDS011;11215;51.938;8.464;2023-07-29T19:14:57;1.27;;;1.17;;
22097;SDS011;11215;51.938;8.464;2023-07-29T19:17:23;1.17;;;1.07;;
22097;SDS011;11215;51.938;8.464;2023-07-29T19:19:49;1.47;;;0.97;;
22097;SDS011;11215;51.938;8.464;2023-07-29T19:22:15;2.87;;;1.20;;
22097;SDS011;11215;51.938;8.464;2023-07-29T19:24:40;2.67;;;1.10;;
22097;SDS011;11215;51.938;8.464;2023-07-29T19:27:06;2.00;;;0.93;;
22097;SDS011;11215;51.938;8.464;2023-07-29T19:29:32;1.10;;;1.00;;
22097;SDS011;11215;51.938;8.464;2023-07-29T19:31:58;1.00;;;0.90;;
22097;SDS011;11215;51.938;8.464;2023-07-29T19:34:23;2.00;;;1.33;;
22097;SDS011;11215;51.938;8.464;2023-07-29T19:36:49;1.20;;;1.10;;
22097;SDS011;11215;51.938;8.464;2023-07-29T19:39:15;0.93;;;0.90;;
22097;SDS011;11215;51.938;8.464;2023-07-29T19:41:41;2.13;;;1.20;;
22097;SDS011;11215;51.938;8.464;2023-07-29T19:44:07;1.37;;;1.27;;
22097;SDS011;11215;51.938;8.464;2023-07-29T19:46:32;1.90;;;1.00;;
22097;SDS011;11215;51.938;8.464;2023-07-29T19:48:58;1.47;;;1.20;;
22097;SDS011;11215;51.938;8.464;2023-07-29T19:51:24;0.97;;;0.93;;
22097;SDS011;11215;51.938;8.464;2023-07-29T19:53:50;1.37;;;1.27;;
22097;SDS011;11215;51.938;8.464;2023-07-29T19:56:16;1.40;;;1.30;;
22097;SDS011;11215;51.938;8.464;2023-07-29T19:58:42;2.27;;;1.63;;
22097;SDS011;11215;51.938;8.464;2023-07-29T20:01:09;3.13;;;1.30;;
22097;SDS011;11215;51.938;8.464;2023-07-29T20:03:35;1.20;;;1.10;;
22097;SDS011;11215;51.938;8.464;2023-07-29T20:06:01;2.33;;;1.10;;
22097;SDS011;11215;51.938;8.464;2023-07-29T20:08:27;2.13;;;1.10;;
22097;SDS011;11215;51.938;8.464;2023-07-29T20:10:53;1.80;;;1.30;;
22097;SDS011;11215;51.938;8.464;2023-07-29T20:13:19;1.60;;;1.40;;
22097;SDS011;11215;51.938;8.464;2023-07-29T20:15:44;1.80;;;1.30;;
22097;SDS011;11215;51.938;8.464;2023-07-29T20:18:13;3.63;;;1.83;;
22097;SDS011;11215;51.938;8.464;2023-07-29T20:20:38;1.70;;;1.20;;
22097;SDS011;11215;51.938;8.464;2023-07-29T20:23:04;1.43;;;1.33;;
22097;SDS011;11215;51.938;8.464;2023-07-29T20:25:31;1.73;;;1.40;;
22097;SDS011;11215;51.938;8.464;2023-07-29T20:27:57;2.47;;;1.80;;
22097;SDS011;11215;51.938;8.464;2023-07-29T20:30:23;2.13;;;1.70;;
22097;SDS011;11215;51.938;8.464;2023-07-29T20:32:48;2.90;;;1.50;;
22097;SDS011;11215;51.938;8.464;2023-07-29T20:35:14;1.57;;;1.47;;
22097;SDS011;11215;51.938;8.464;2023-07-29T20:37:40;1.73;;;1.60;;
22097;SDS011;11215;51.938;8.464;2023-07-29T20:40:05;2.13;;;1.90;;
22097;SDS011;11215;51.938;8.464;2023-07-29T20:42:32;2.63;;;1.47;;
22097;SDS011;11215;51.938;8.464;2023-07-29T20:45:00;2.70;;;1.63;;
22097;SDS011;11215;51.938;8.464;2023-07-29T20:47:27;3.47;;;1.63;;
22097;SDS011;11215;51.938;8.464;2023-07-29T20:49:53;1.70;;;1.57;;
22097;SDS011;11215;51.938;8.464;2023-07-29T20:52:18;1.70;;;1.40;;
22097;SDS011;11215;51.938;8.464;2023-07-29T20:54:44;4.40;;;1.60;;
22097;SDS011;11215;51.938;8.464;2023-07-29T20:57:09;1.53;;;1.43;;
22097;SDS011;11215;51.938;8.464;2023-07-29T20:59:35;2.97;;;1.80;;
22097;SDS011;11215;51.938;8.464;2023-07-29T21:02:04;2.50;;;1.70;;
22097;SDS011;11215;51.938;8.464;2023-07-29T21:04:30;2.67;;;1.73;;
22097;SDS011;11215;51.938;8.464;2023-07-29T21:06:56;2.63;;;1.53;;
22097;SDS011;11215;51.938;8.464;2023-07-29T21:09:23;1.83;;;1.70;;
22097;SDS011;11215;51.938;8.464;2023-07-29T21:11:48;2.83;;;1.67;;
22097;SDS011;11215;51.938;8.464;2023-07-29T21:14:16;2.00;;;1.80;;
22097;SDS011;11215;51.938;8.464;2023-07-29T21:16:42;2.33;;;1.57;;
22097;SDS011;11215;51.938;8.464;2023-07-29T21:19:07;3.70;;;1.93;;
22097;SDS011;11215;51.938;8.464;2023-07-29T21:21:33;2.33;;;1.80;;
22097;SDS011;11215;51.938;8.464;2023-07-29T21:23:59;3.93;;;1.90;;
22097;SDS011;11215;51.938;8.464;2023-07-29T21:26:24;2.50;;;1.80;;
22097;SDS011;11215;51.938;8.464;2023-07-29T21:28:50;4.03;;;2.10;;
22097;SDS011;11215;51.938;8.464;2023-07-29T21:31:16;3.17;;;1.90;;
22097;SDS011;11215;51.938;8.464;2023-07-29T21:33:41;3.40;;;2.00;;
22097;SDS011;11215;51.938;8.464;2023-07-29T21:36:07;1.60;;;1.50;;
22097;SDS011;11215;51.938;8.464;2023-07-29T21:38:32;2.33;;;1.83;;
22097;SDS011;11215;51.938;8.464;2023-07-29T21:40:58;1.90;;;1.60;;
22097;SDS011;11215;51.938;8.464;2023-07-29T21:43:24;2.73;;;2.00;;
22097;SDS011;11215;51.938;8.464;2023-07-29T21:45:50;1.70;;;1.53;;
22097;SDS011;11215;51.938;8.464;2023-07-29T21:48:15;2.97;;;1.80;;
22097;SDS011;11215;51.938;8.464;2023-07-29T21:50:41;4.47;;;2.00;;
22097;SDS011;11215;51.938;8.464;2023-07-29T21:53:07;2.00;;;1.90;;
22097;SDS011;11215;51.938;8.464;2023-07-29T21:55:33;3.37;;;1.87;;
22097;SDS011;11215;51.938;8.464;2023-07-29T21:57:58;2.20;;;2.00;;
22097;SDS011;11215;51.938;8.464;2023-07-29T22:00:24;3.23;;;1.97;;
22097;SDS011;11215;51.938;8.464;2023-07-29T22:02:50;2.03;;;1.83;;
22097;SDS011;11215;51.938;8.464;2023-07-29T22:05:17;2.47;;;2.23;;
22097;SDS011;11215;51.938;8.464;2023-07-29T22:07:43;2.23;;;2.03;;
22097;SDS011;11215;51.938;8.464;2023-07-29T22:10:08;4.63;;;2.17;;
22097;SDS011;11215;51.938;8.464;2023-07-29T22:12:34;2.70;;;2.17;;
22097;SDS011;11215;51.938;8.464;2023-07-29T22:15:00;2.37;;;2.13;;
22097;SDS011;11215;51.938;8.464;2023-07-29T22:17:27;2.67;;;2.20;;
22097;SDS011;11215;51.938;8.464;2023-07-29T22:19:53;3.30;;;2.20;;
22097;SDS011;11215;51.938;8.464;2023-07-29T22:22:19;3.70;;;2.40;;
22097;SDS011;11215;51.938;8.464;2023-07-29T22:24:44;3.53;;;1.90;;
22097;SDS011;11215;51.938;8.464;2023-07-29T22:27:10;4.57;;;2.70;;
22097;SDS011;11215;51.938;8.464;2023-07-29T22:29:36;3.03;;;2.33;;
22097;SDS011;11215;51.938;8.464;2023-07-29T22:32:06;2.80;;;2.60;;
22097;SDS011;11215;51.938;8.464;2023-07-29T22:34:32;5.27;;;2.50;;
22097;SDS011;11215;51.938;8.464;2023-07-29T22:36:58;2.17;;;1.97;;
22097;SDS011;11215;51.938;8.464;2023-07-29T22:39:23;2.70;;;2.50;;
22097;SDS011;11215;51.938;8.464;2023-07-29T22:41:49;2.87;;;2.00;;
22097;SDS011;11215;51.938;8.464;2023-07-29T22:44:15;3.10;;;2.10;;
22097;SDS011;11215;51.938;8.464;2023-07-29T22:46:40;2.00;;;1.80;;
22097;SDS011;11215;51.938;8.464;2023-07-29T22:49:06;3.20;;;2.23;;
22097;SDS011;11215;51.938;8.464;2023-07-29T22:51:32;5.20;;;2.43;;
22097;SDS011;11215;51.938;8.464;2023-07-29T22:53:58;6.67;;;2.60;;
22097;SDS011;11215;51.938;8.464;2023-07-29T22:56:24;3.30;;;2.50;;
22097;SDS011;11215;51.938;8.464;2023-07-29T22:58:49;5.03;;;2.73;;
22097;SDS011;11215;51.938;8.464;2023-07-29T23:01:15;3.50;;;2.27;;
22097;SDS011;11215;51.938;8.464;2023-07-29T23:03:40;3.10;;;2.83;;
22097;SDS011;11215;51.938;8.464;2023-07-29T23:06:06;3.13;;;2.70;;
22097;SDS011;11215;51.938;8.464;2023-07-29T23:08:32;2.73;;;2.40;;
22097;SDS011;11215;51.938;8.464;2023-07-29T23:11:01;3.63;;;3.30;;
22097;SDS011;11215;51.938;8.464;2023-07-29T23:13:27;4.67;;;2.87;;
22097;SDS011;11215;51.938;8.464;2023-07-29T23:15:53;3.03;;;2.70;;
22097;SDS011;11215;51.938;8.464;2023-07-29T23:18:19;5.57;;;2.80;;
22097;SDS011;11215;51.938;8.464;2023-07-29T23:20:44;6.07;;;3.10;;
22097;SDS011;11215;51.938;8.464;2023-07-29T23:23:10;3.30;;;2.70;;
22097;SDS011;11215;51.938;8.464;2023-07-29T23:25:36;2.80;;;2.43;;
22097;SDS011;11215;51.938;8.464;2023-07-29T23:28:01;5.30;;;2.70;;
22097;SDS011;11215;51.938;8.464;2023-07-29T23:30:27;3.00;;;2.63;;
22097;SDS011;11215;51.938;8.464;2023-07-29T23:32:53;2.37;;;2.17;;
22097;SDS011;11215;51.938;8.464;2023-07-29T23:35:19;3.50;;;2.90;;
22097;SDS011;11215;51.938;8.464;2023-07-29T23:37:44;3.77;;;2.70;;
22097;SDS011;11215;51.938;8.464;2023-07-29T23:40:10;4.40;;;3.17;;
22097;SDS011;11215;51.938;8.464;2023-07-29T23:42:36;3.60;;;3.30;;
22097;SDS011;11215;51.938;8.464;2023-07-29T23:45:02;3.53;;;3.23;;
22097;SDS011;11215;51.938;8.464;2023-07-29T23:47:31;3.73;;;2.70;;
22097;SDS011;11215;51.938;8.464;2023-07-29T23:49:57;4.37;;;3.00;;
22097;SDS011;11215;51.938;8.464;2023-07-29T23:52:22;2.90;;;2.70;;
22097;SDS011;11215;51.938;8.464;2023-07-29T23:54:48;3.17;;;2.60;;
22097;SDS011;11215;51.938;8.464;2023-07-29T23:57:14;4.27;;;2.80;;
22097;SDS011;11215;51.938;8.464;2023-07-29T23:59:39;2.83;;;2.50;;
